Stations météo

réclame
Mon MeteoGroup
Stabroek, Belgique (6438): Température de l'air & dewpoint: 20.05.2018 23:00:00 - 26.05.2018 23:00:00 (CEST)Stabroek, Belgique (6438): Vitesse du vent & gusts: 20.05.2018 23:00:00 - 26.05.2018 23:00:00 (CEST)Stabroek, Belgique (6438): Direction du vent: 20.05.2018 23:00:00 - 26.05.2018 23:00:00 (CEST)Stabroek, Belgique (6438): reduced air pressure: 20.05.2018 23:00:00 - 26.05.2018 23:00:00 (CEST)Stabroek, Belgique (6438): Ensoleillement: 20.05.2018 23:00:00 - 26.05.2018 23:00:00 (CEST)Stabroek, Belgique (6438): Quantités de précipitations: 20.05.2018 23:00:00 - 26.05.2018 23:00:00 (CEST)
Date & Time tt [°C] td [°C] ff [km/h] ff [knt] fx [km/h] fx [knt] dd ppp [hPa] sd [min] rr [mm]
26.05.2018 23:00:00 22,9 15,1 7 4 12 7 ENE 1018,9 0 0,0
26.05.2018 22:00:00 24,4 14,9 8 4 16 8 NE 1018,8 6 0,0
26.05.2018 21:00:00 26,0 15,1 10 5 21 11 ENE 1018,6 60 0,0
26.05.2018 20:00:00 26,9 15,0 11 6 21 12 ENE 1018,4 57 0,0
26.05.2018 19:00:00 27,7 14,5 14 8 23 12 E 1018,4 60 0,0
26.05.2018 18:00:00 27,3 15,5 9 5 27 14 E 1018,5 60 0,0
26.05.2018 17:00:00 28,1 14,8 13 7 23 13 E 1018,9 60 0,0
26.05.2018 16:00:00 27,8 15,4 12 7 25 13 E 1019,2 60 0,0
26.05.2018 15:00:00 27,4 15,6 13 7 29 16 E 1019,6 60 0,0
26.05.2018 14:00:00 26,7 14,8 16 8 25 13 E 1019,7 60 0,0
26.05.2018 13:00:00 25,9 16,9 13 7 23 12 E 1019,9 60 0,0
26.05.2018 12:00:00 25,4 17,4 11 6 19 10 E 1019,9 60 0,0
26.05.2018 11:00:00 24,1 17,8 8 4 14 8 ENE 1019,9 60 0,0
26.05.2018 10:00:00 22,5 18,3 7 4 12 6 ENE 1019,6 60 0,0
26.05.2018 09:00:00 19,6 17,3 5 3 11 6 ENE 1019,5 60 0,0
26.05.2018 08:00:00 18,0 16,6 6 3 11 6 ENE 1019,4 29 0,0
26.05.2018 07:00:00 16,7 16,0 4 2 6 4 NE 1019,2 9 0,0
26.05.2018 06:00:00 15,7 15,3 4 2 10 5 ESE 1018,7 0 0,0
26.05.2018 05:00:00 15,4 15,2 4 2 6 4 NNE 1018,7 0 0,0
26.05.2018 04:00:00 14,7 14,5 4 2 4 2 N 1018,7 0 0,0
26.05.2018 03:00:00 15,0 14,7 4 2 6 3 N 1018,9 0 0,0
26.05.2018 02:00:00 15,5 15,1 4 2 8 4 NW 1019,1 0 0,0
26.05.2018 01:00:00 15,8 15,1 4 2 10 6 NNW 1019,3 0 0,0
26.05.2018 00:00:00 16,4 15,6 6 4 12 7 NNW 1019,2 0 0,0
25.05.2018 23:00:00 17,2 16,0 6 4 10 5 NW 1019,2 0 0,0
25.05.2018 22:00:00 18,2 16,5 8 5 17 9 NW 1018,9 0 0,0
25.05.2018 21:00:00 19,7 17,0 10 5 19 10 NW 1018,5 28 0,0
25.05.2018 20:00:00 21,0 17,3 14 8 22 12 NW 1018,4 60 0,0
25.05.2018 19:00:00 22,8 17,9 11 6 26 14 N 1017,9 60 0,0
25.05.2018 18:00:00 23,2 18,8 16 9 26 14 NNW 1018,3 60 0,0
25.05.2018 17:00:00 23,7 17,3 14 8 22 12 NW 1018,4 49 0,0
25.05.2018 16:00:00 23,4 16,3 7 4 14 8 N 1018,4 15 0,0
25.05.2018 15:00:00 24,1 14,7 4 2 14 7 S 1018,3 12 0,0
25.05.2018 14:00:00 23,7 13,3 7 4 16 9 SW 1018,3 43 0,0
25.05.2018 13:00:00 23,2 16,3 6 3 17 9 ESE 1018,5 60 0,0
25.05.2018 12:00:00 22,2 15,9 6 4 12 7 ESE 1018,5 60 0,0
25.05.2018 11:00:00 21,0 16,4 5 3 12 7 ESE 1018,4 60 0,0
25.05.2018 10:00:00 18,3 16,1 4 2 6 4 SE 1018,4 60 0,0
25.05.2018 09:00:00 16,4 16,4 4 2 7 4 ESE 1018,2 50 0,0
25.05.2018 08:00:00 14,9 14,9 4 2 7 4 SE 1017,9 0 0,0
25.05.2018 07:00:00 14,4 14,4 4 2 9 5 SE 1017,8 0 0,0
25.05.2018 06:00:00 14,7 14,7 6 3 8 4 E 1017,3 0 0,0
25.05.2018 05:00:00 14,5 14,5 4 2 8 4 SE 1017,0 0 0,0
25.05.2018 04:00:00 14,7 14,7 4 2 7 4 SE 1017,1 0 0,0
25.05.2018 03:00:00 15,0 14,7 4 2 8 4 ESE 1017,0 0 0,0
25.05.2018 02:00:00 16,1 15,8 4 2 15 8 E 1017,0 0 2,0
25.05.2018 01:00:00 16,9 16,6 5 3 7 4 E 1017,5 0 0,7
25.05.2018 00:00:00 16,8 16,2 4 2 5 3 E 1017,4 0 0,0
24.05.2018 23:00:00 17,0 15,9 0 0 16 8 N 1017,4 0 1,1
24.05.2018 22:00:00 18,1 16,8 6 4 14 8 E 1017,1 0 0,4
24.05.2018 21:00:00 19,5 17,0 8 4 15 8 WNW 1016,6 0 0,0
24.05.2018 20:00:00 20,2 17,6 4 2 9 5 SSW 1016,6 0 0,2
24.05.2018 19:00:00 20,6 15,9 5 3 29 15 E 1016,6 0 0,0
24.05.2018 18:00:00 22,3 15,5 14 8 27 15 ENE 1016,9 50 0,0
24.05.2018 17:00:00 22,5 15,6 13 7 31 17 NE 1016,6 60 0,0
24.05.2018 16:00:00 22,3 15,5 16 8 31 17 NE 1017,6 60 0,0
24.05.2018 15:00:00 22,3 15,5 16 9 31 17 ENE 1018,0 60 0,0
24.05.2018 14:00:00 21,9 15,6 14 8 30 16 ENE 1018,4 60 0,0
24.05.2018 13:00:00 21,0 14,4 19 10 29 15 ENE 1018,8 60 0,0
24.05.2018 12:00:00 20,7 14,1 16 9 31 17 ENE 1019,1 60 0,0
24.05.2018 11:00:00 19,7 13,8 13 7 26 14 NE 1019,4 28 0,0
24.05.2018 10:00:00 17,2 11,7 10 6 21 11 ENE 1019,9 18 0,0
24.05.2018 09:00:00 18,0 11,6 9 5 18 10 ENE 1019,7 32 0,0
24.05.2018 08:00:00 16,1 10,8 7 4 14 8 NE 1020,0 26 0,0
24.05.2018 07:00:00 14,3 10,8 5 3 8 4 ENE 1019,9 13 0,0
24.05.2018 06:00:00 13,3 10,4 4 2 8 5 NE 1019,9 0 0,0
24.05.2018 05:00:00 14,4 10,9 5 3 10 5 N 1020,1 0 0,0
24.05.2018 04:00:00 15,5 11,0 6 3 9 5 NNE 1020,5 0 0,0
24.05.2018 03:00:00 16,7 10,7 4 2 16 8 ENE 1020,6 0 0,0
24.05.2018 02:00:00 16,4 11,6 11 6 20 11 E 1020,7 0 0,0
24.05.2018 01:00:00 17,5 11,9 11 6 18 10 NE 1020,3 0 0,0
24.05.2018 00:00:00 17,7 13,0 7 4 14 8 NE 1020,5 0 0,0
23.05.2018 23:00:00 18,5 15,5 5 3 9 5 NNE 1020,5 0 0,0
23.05.2018 22:00:00 19,4 16,8 4 2 6 3 N 1020,4 0 0,1
23.05.2018 21:00:00 19,8 17,3 4 2 11 6 NE 1020,0 - -
23.05.2018 20:00:00 20,4 15,7 11 6 33 18 NNE 1019,5 19 0,6
23.05.2018 19:00:00 22,9 15,2 12 7 27 15 ENE 1019,4 58 0,0
23.05.2018 18:00:00 23,3 14,3 16 8 30 16 NE 1019,4 59 0,0
23.05.2018 17:00:00 22,9 14,8 13 7 29 15 ENE 1019,6 56 0,0
23.05.2018 16:00:00 21,6 15,3 13 7 24 13 NE 1020,1 9 0,0
23.05.2018 15:00:00 21,4 15,3 11 6 20 11 ENE 1020,4 24 0,0
23.05.2018 14:00:00 21,2 16,2 11 6 23 12 NNE 1020,5 46 0,0
23.05.2018 13:00:00 19,0 16,0 9 5 18 10 NE 1020,7 3 0,0
23.05.2018 12:00:00 18,6 15,7 11 6 19 11 NNE 1020,4 47 0,0
23.05.2018 11:00:00 17,5 15,6 10 5 21 11 NNE 1020,1 12 0,0
23.05.2018 10:00:00 15,8 15,5 8 4 16 9 N 1019,8 2 0,9
23.05.2018 09:00:00 14,9 14,6 4 2 11 6 N 1019,6 0 1,5
23.05.2018 08:00:00 14,9 14,4 4 2 7 4 N 1019,3 0 1,3
23.05.2018 07:00:00 15,0 14,4 4 2 13 7 N 1018,5 0 0,0
23.05.2018 06:00:00 14,8 14,2 9 5 13 7 N 1018,1 0 0,0
23.05.2018 05:00:00 14,7 14,3 4 2 9 5 NNW 1017,5 0 0,2
23.05.2018 04:00:00 14,7 14,2 4 2 6 4 N 1017,1 0 0,0
23.05.2018 03:00:00 14,2 13,7 4 2 3 2 N 1017,0 0 0,0
23.05.2018 02:00:00 14,3 13,4 0 0 4 2 N 1017,0 0 0,0
23.05.2018 01:00:00 14,9 13,2 0 0 7 4 N 1016,7 0 0,0
23.05.2018 00:00:00 15,7 14,0 0 0 9 5 N 1016,3 0 0,0
22.05.2018 23:00:00 16,5 14,3 6 3 13 7 NNW 1016,3 0 0,0
22.05.2018 22:00:00 16,5 14,8 6 4 8 5 NW 1015,6 0 0,0
22.05.2018 21:00:00 16,5 14,5 4 2 8 5 ENE 1015,3 0 0,0
22.05.2018 20:00:00 17,0 14,2 0 0 9 5 N 1015,2 0 0,0
22.05.2018 19:00:00 17,1 13,5 7 4 24 13 ESE 1015,1 0 0,0
22.05.2018 18:00:00 18,9 14,2 14 7 25 13 E 1014,6 3 0,0
22.05.2018 17:00:00 20,3 15,9 8 4 26 14 NNW 1013,4 12 0,3
22.05.2018 16:00:00 18,0 15,1 9 5 46 25 NNE 1013,5 0 10,7
22.05.2018 15:00:00 22,3 11,8 17 9 27 15 NW 1013,2 13 0,0
22.05.2018 14:00:00 24,3 13,8 7 4 17 9 N 1013,1 58 0,0
22.05.2018 13:00:00 23,2 13,0 8 5 17 9 NE 1013,3 60 0,0
22.05.2018 12:00:00 22,4 13,7 8 5 17 9 NE 1013,2 60 0,0
22.05.2018 11:00:00 21,1 13,9 10 5 18 10 NNE 1013,3 60 0,0
22.05.2018 10:00:00 19,9 13,9 9 5 18 10 NE 1013,4 60 0,0
22.05.2018 09:00:00 17,3 13,6 8 5 15 8 NE 1013,2 39 0,0
22.05.2018 08:00:00 16,3 13,1 7 4 12 6 NE 1012,7 60 0,0
22.05.2018 07:00:00 12,4 11,4 4 2 5 3 ENE 1012,3 29 0,0
22.05.2018 06:00:00 12,6 11,1 4 2 12 6 NE 1012,2 0 0,0
22.05.2018 05:00:00 12,9 12,0 8 5 11 6 NNE 1012,0 0 0,0
22.05.2018 04:00:00 12,3 11,9 4 2 4 2 NNE 1012,1 0 0,0
22.05.2018 03:00:00 12,7 12,1 4 2 6 3 ENE 1012,2 0 0,0
22.05.2018 02:00:00 13,7 12,5 4 2 8 4 N 1012,3 0 0,0
22.05.2018 01:00:00 15,8 13,3 6 3 8 4 N 1012,6 0 0,0
22.05.2018 00:00:00 16,2 14,0 4 2 6 3 N 1012,9 0 0,0
21.05.2018 23:00:00 16,8 14,5 0 0 6 4 N 1012,8 0 0,0
21.05.2018 22:00:00 17,7 14,2 4 2 6 4 NNE 1012,3 0 0,0
21.05.2018 21:00:00 18,2 13,9 6 4 23 12 E 1012,4 0 0,1
21.05.2018 20:00:00 19,2 14,0 14 8 28 15 ESE 1012,4 12 0,2
21.05.2018 19:00:00 23,0 13,3 9 5 34 19 S 1012,1 34 0,3
21.05.2018 18:00:00 25,0 10,6 9 5 29 15 ESE 1012,1 54 0,0
21.05.2018 17:00:00 24,1 10,2 15 8 30 16 SE 1012,8 42 0,0
21.05.2018 16:00:00 23,9 10,1 12 7 33 18 E 1013,3 40 0,0
21.05.2018 15:00:00 23,8 9,1 16 8 35 19 E 1013,8 27 0,0
21.05.2018 14:00:00 23,2 8,6 14 8 32 18 E 1014,2 60 0,0
21.05.2018 13:00:00 22,1 10,1 14 8 26 14 NE 1015,0 60 0,0
21.05.2018 12:00:00 20,3 10,9 8 5 19 11 NE 1015,8 51 0,0
21.05.2018 11:00:00 17,9 11,2 8 4 17 9 ENE 1016,2 44 0,0
21.05.2018 10:00:00 16,5 11,8 9 5 14 8 E 1016,8 41 0,0
21.05.2018 09:00:00 14,7 11,8 8 4 13 7 E 1017,3 22 0,0
21.05.2018 08:00:00 12,9 11,5 7 4 12 6 E 1017,6 0 0,1
21.05.2018 07:00:00 12,2 11,6 4 2 8 4 E 1017,5 0 0,1
21.05.2018 06:00:00 11,2 11,2 4 2 7 4 NE 1017,6 0 0,0
21.05.2018 05:00:00 11,4 11,2 0 0 7 4 N 1017,9 0 0,0
21.05.2018 04:00:00 11,8 11,8 0 0 5 3 N 1018,3 0 0,0
21.05.2018 03:00:00 12,1 12,0 0 0 3 1 N 1018,7 0 0,0
21.05.2018 02:00:00 12,1 11,8 4 2 9 5 SSE 1019,4 0 0,0
21.05.2018 01:00:00 14,0 12,4 5 3 8 4 N 1019,5 0 0,0
21.05.2018 00:00:00 15,2 13,0 6 3 11 6 N 1019,8 0 0,0
20.05.2018 23:00:00 16,3 13,1 4 2 15 8 SSW 1020,7 0 0,1

tt = Température de l'air
td = dewpoint
ff = Vitesse du vent
fx = gusts
dd = Direction du vent
ppp = reduced air pressure
sd = Ensoleillement
rr = Quantités de précipitations

stations d'obs. à proximité